Time;durP1;ratioP1;P1;durP2;ratioP2;P2;SDS_P1;SDS_P2;PMS_P1;PMS_P2;Temp;Humidity;BMP_temperature;BMP_pressure;BME280_temperature;BME280_humidity;BME280_pressure;Samples;Min_cycle;Max_cycle;Signal;HPM_P1;HPM_P2
2022/04/24 00:03:34;;;;;;;3.07;1.33;;;;;;;;;;12645278;28;20032;-76
2022/04/24 00:09:37;;;;;;;3.10;1.63;;;;;;;;;;12652042;28;20055;-76
2022/04/24 00:15:42;;;;;;;;;;;;;;;;;;12626030;28;20047;-76
2022/04/24 00:21:44;;;;;;;2.20;1.50;;;;;;;;;;12643526;28;19930;-76
2022/04/24 00:27:45;;;;;;;1.70;1.60;;;;;;;;;;12625359;28;20036;-76
2022/04/24 00:33:47;;;;;;;1.92;1.23;;;;;;;;;;12641906;28;20056;-76
2022/04/24 00:39:50;;;;;;;2.90;2.60;;;;;;;;;;12648585;28;20047;-76
2022/04/24 00:45:55;;;;;;;2.30;2.05;;;;;;;;;;12634761;28;20028;-76
2022/04/24 00:51:57;;;;;;;3.25;2.85;;;;;;;;;;12652625;28;20040;-76
2022/04/24 00:57:58;;;;;;;5.03;3.15;;;;;;;;;;12651840;28;20047;-76
2022/04/24 01:04:02;;;;;;;3.67;3.30;;;;;;;;;;12652148;28;20032;-76
2022/04/24 01:10:04;;;;;;;3.67;3.25;;;;;;;;;;12650796;28;20032;-76
2022/04/24 01:16:06;;;;;;;3.20;2.90;;;;;;;;;;12633237;28;20210;-76
2022/04/24 01:22:08;;;;;;;4.18;3.78;;;;;;;;;;12633064;28;20039;-76
2022/04/24 01:28:10;;;;;;;4.03;3.63;;;;;;;;;;12650771;28;20040;-76
2022/04/24 01:34:12;;;;;;;7.00;6.30;;;;;;;;;;12649298;28;20052;-76
2022/04/24 01:40:14;;;;;;;5.05;4.63;;;;;;;;;;12647576;28;20048;-76
2022/04/24 01:46:17;;;;;;;4.30;3.90;;;;;;;;;;12649877;28;20035;-79
2022/04/24 01:52:18;;;;;;;5.80;4.60;;;;;;;;;;12648723;28;20484;-79
2022/04/24 01:58:20;;;;;;;4.85;4.45;;;;;;;;;;12660773;28;20040;-78
2022/04/24 02:04:26;;;;;;;4.68;4.20;;;;;;;;;;12653500;28;20032;-79
2022/04/24 02:10:28;;;;;;;5.13;4.65;;;;;;;;;;12647792;28;20032;-79
2022/04/24 02:16:30;;;;;;;4.10;3.70;;;;;;;;;;12648725;28;20043;-76
2022/04/24 02:22:32;;;;;;;4.75;4.35;;;;;;;;;;12630284;28;20384;-76
2022/04/24 02:28:34;;;;;;;3.75;3.45;;;;;;;;;;12646806;28;20067;-76
2022/04/24 02:34:36;;;;;;;4.10;3.70;;;;;;;;;;12647526;28;20048;-76
2022/04/24 02:40:38;;;;;;;3.63;3.33;;;;;;;;;;12646419;28;20044;-76
2022/04/24 02:46:39;;;;;;;4.95;3.80;;;;;;;;;;12647729;28;20036;-75
2022/04/24 02:52:48;;;;;;;4.05;3.38;;;;;;;;;;12646748;28;20024;-76
2022/04/24 02:58:49;;;;;;;4.57;4.18;;;;;;;;;;12645152;28;20361;-76
2022/04/24 03:04:51;;;;;;;3.75;3.45;;;;;;;;;;12628889;28;20028;-76
2022/04/24 03:10:53;;;;;;;3.33;3.03;;;;;;;;;;12628231;28;20380;-76
2022/04/24 03:16:55;;;;;;;5.38;4.80;;;;;;;;;;12645783;28;20036;-76
2022/04/24 03:22:56;;;;;;;4.00;3.58;;;;;;;;;;12641667;28;20012;-76
2022/04/24 03:28:58;;;;;;;3.70;3.35;;;;;;;;;;12645322;28;20056;-76
2022/04/24 03:35:00;;;;;;;3.80;3.50;;;;;;;;;;12644829;28;20485;-76
2022/04/24 03:41:02;;;;;;;3.43;3.13;;;;;;;;;;12644637;28;20519;-76
2022/04/24 03:47:04;;;;;;;4.72;4.30;;;;;;;;;;12655982;28;20262;-76
2022/04/24 03:53:06;;;;;;;4.23;3.83;;;;;;;;;;12628159;28;20499;-76
2022/04/24 03:59:08;;;;;;;5.03;4.33;;;;;;;;;;12609140;28;20624;-76
2022/04/24 04:05:11;;;;;;;4.63;4.15;;;;;;;;;;12625800;28;20036;-76
2022/04/24 04:11:12;;;;;;;;;;;;;;;;;;12644704;28;20039;-76
2022/04/24 04:17:14;;;;;;;4.13;3.83;;;;;;;;;;12636311;28;20372;-76
2022/04/24 04:23:16;;;;;;;3.72;3.42;;;;;;;;;;12652655;28;20047;-76
2022/04/24 04:29:18;;;;;;;4.10;3.70;;;;;;;;;;12653612;28;20527;-77
2022/04/24 04:35:23;;;;;;;4.18;3.70;;;;;;;;;;12647325;28;20044;-76
2022/04/24 04:41:25;;;;;;;8.23;7.32;;;;;;;;;;12651919;28;20044;-77
2022/04/24 04:47:31;;;;;;;4.07;3.67;;;;;;;;;;12652951;28;20396;-76
2022/04/24 04:53:34;;;;;;;6.38;5.80;;;;;;;;;;12652821;28;20041;-76
2022/04/24 04:59:36;;;;;;;6.57;5.88;;;;;;;;;;12652413;28;20051;-76
2022/04/24 05:05:38;;;;;;;11.23;9.52;;;;;;;;;;12650801;28;20036;-76
2022/04/24 05:11:39;;;;;;;7.20;6.60;;;;;;;;;;12650711;28;20040;-76
2022/04/24 05:17:42;;;;;;;7.25;6.55;;;;;;;;;;12651195;28;20040;-76
2022/04/24 05:23:46;;;;;;;7.75;6.38;;;;;;;;;;12649848;28;20476;-76
2022/04/24 05:29:48;;;;;;;5.55;5.05;;;;;;;;;;12650884;28;20526;-79
2022/04/24 05:35:50;;;;;;;2.58;2.38;;;;;;;;;;12649398;28;20036;-76
2022/04/24 05:41:52;;;;;;;2.17;2.03;;;;;;;;;;12650654;28;20035;-76
2022/04/24 05:47:55;;;;;;;1.52;1.42;;;;;;;;;;12663311;28;20032;-76
2022/04/24 05:53:58;;;;;;;1.77;1.65;;;;;;;;;;12649379;28;20388;-76
2022/04/24 05:59:59;;;;;;;1.45;1.35;;;;;;;;;;12649872;28;20055;-76
2022/04/24 06:06:01;;;;;;;1.33;1.23;;;;;;;;;;12648962;28;20043;-76
2022/04/24 06:12:03;;;;;;;2.28;1.67;;;;;;;;;;12648687;28;20032;-76
2022/04/24 06:18:05;;;;;;;1.20;1.10;;;;;;;;;;12648460;28;20063;-76
2022/04/24 06:24:06;;;;;;;1.73;1.30;;;;;;;;;;12647250;28;20035;-76
2022/04/24 06:30:09;;;;;;;3.20;1.65;;;;;;;;;;12647722;28;20455;-76
2022/04/24 06:36:10;;;;;;;1.98;1.83;;;;;;;;;;12628783;28;20028;-77
2022/04/24 06:42:12;;;;;;;2.70;2.30;;;;;;;;;;12647582;28;20477;-77
2022/04/24 06:48:15;;;;;;;3.55;2.08;;;;;;;;;;12646915;28;20081;-75
2022/04/24 06:54:17;;;;;;;2.42;2.20;;;;;;;;;;12628899;28;20153;-75
2022/04/24 07:00:19;;;;;;;3.08;2.88;;;;;;;;;;12661894;28;20039;-75
2022/04/24 07:06:21;;;;;;;2.83;2.63;;;;;;;;;;12627905;28;20032;-75
2022/04/24 07:12:23;;;;;;;2.05;1.85;;;;;;;;;;12646062;28;20028;-76
2022/04/24 07:18:27;;;;;;;1.58;1.42;;;;;;;;;;12627070;28;20040;-76
2022/04/24 07:24:29;;;;;;;1.40;0.88;;;;;;;;;;12648349;28;20036;-76
2022/04/24 07:30:31;;;;;;;0.82;0.80;;;;;;;;;;12645172;28;20079;-76
2022/04/24 07:36:32;;;;;;;0.95;0.50;;;;;;;;;;12643435;28;20051;-76
2022/04/24 07:42:51;;;;;;;1.40;0.55;;;;;;;;;;12627314;28;20043;-76
2022/04/24 07:48:53;;;;;;;0.57;0.43;;;;;;;;;;12645218;28;20070;-76
2022/04/24 07:54:54;;;;;;;0.90;0.50;;;;;;;;;;12643971;28;20484;-76
2022/04/24 08:00:56;;;;;;;0.65;0.57;;;;;;;;;;12644250;28;20040;-75
2022/04/24 08:06:58;;;;;;;1.05;0.52;;;;;;;;;;12644187;28;20345;-76
2022/04/24 08:13:00;;;;;;;0.43;0.43;;;;;;;;;;12626016;28;20032;-76
2022/04/24 08:19:01;;;;;;;0.57;0.20;;;;;;;;;;12647633;28;20125;-76
2022/04/24 08:25:03;;;;;;;0.75;0.20;;;;;;;;;;12643488;28;20372;-78
2022/04/24 08:31:05;;;;;;;0.43;0.20;;;;;;;;;;12643542;28;20384;-78
2022/04/24 08:37:06;;;;;;;0.43;0.30;;;;;;;;;;12642424;28;20044;-78
2022/04/24 08:43:08;;;;;;;0.82;0.20;;;;;;;;;;12651643;28;20043;-76
2022/04/24 08:49:10;;;;;;;0.60;0.23;;;;;;;;;;12631314;28;20063;-76
2022/04/24 08:55:12;;;;;;;0.40;0.20;;;;;;;;;;12642956;28;20039;-76
2022/04/24 09:01:14;;;;;;;0.53;0.30;;;;;;;;;;12650126;28;20051;-76
2022/04/24 09:07:19;;;;;;;1.33;0.20;;;;;;;;;;12652052;28;20399;-76
2022/04/24 09:19:58;;;;;;;0.65;0.40;;;;;;;;;;12656548;28;20491;-78
2022/04/24 09:25:59;;;;;;;0.87;0.40;;;;;;;;;;12651516;28;20036;-79
2022/04/24 09:32:01;;;;;;;0.40;0.30;;;;;;;;;;12650611;28;20559;-78
2022/04/24 09:38:13;;;;;;;0.30;0.20;;;;;;;;;;12650092;28;20044;-78
2022/04/24 09:44:16;;;;;;;0.82;0.70;;;;;;;;;;12632477;28;20035;-76
2022/04/24 09:50:17;;;;;;;1.73;0.70;;;;;;;;;;12650028;28;20028;-78
2022/04/24 09:56:20;;;;;;;1.03;0.60;;;;;;;;;;12650283;28;20043;-76
2022/04/24 10:02:22;;;;;;;2.50;2.30;;;;;;;;;;12650553;28;20403;-78
2022/04/24 10:08:24;;;;;;;1.67;0.90;;;;;;;;;;12650064;28;20054;-77
2022/04/24 10:14:26;;;;;;;0.95;0.77;;;;;;;;;;12631482;28;20396;-79
2022/04/24 10:20:42;;;;;;;0.47;0.47;;;;;;;;;;12648057;28;20036;-78
2022/04/24 10:27:01;;;;;;;1.27;0.70;;;;;;;;;;12648285;28;20524;-77
2022/04/24 10:33:23;;;;;;;0.95;0.73;;;;;;;;;;12648058;28;20048;-79
2022/04/24 10:39:37;;;;;;;0.95;0.70;;;;;;;;;;12646250;28;20055;-79
2022/04/24 10:45:46;;;;;;;0.65;0.63;;;;;;;;;;12645961;28;20043;-79
2022/04/24 10:52:01;;;;;;;1.10;0.90;;;;;;;;;;12646187;28;20036;-79
2022/04/24 10:58:05;;;;;;;1.45;1.00;;;;;;;;;;12646246;28;20036;-79
2022/04/24 11:04:07;;;;;;;2.20;1.40;;;;;;;;;;12649158;28;20028;-78
2022/04/24 11:10:10;;;;;;;1.83;1.60;;;;;;;;;;12645776;28;20043;-78
2022/04/24 11:16:12;;;;;;;2.95;1.45;;;;;;;;;;12645485;28;20032;-79
2022/04/24 11:22:14;;;;;;;1.65;1.10;;;;;;;;;;12644036;28;20047;-78
2022/04/24 11:28:16;;;;;;;0.98;0.60;;;;;;;;;;12643958;28;20674;-78
2022/04/24 11:34:19;;;;;;;0.55;0.52;;;;;;;;;;12627532;28;20048;-78
2022/04/24 11:40:20;;;;;;;0.82;0.82;;;;;;;;;;12643252;28;20040;-78
2022/04/24 11:52:49;;;;;;;1.48;1.38;;;;;;;;;;12659694;28;20043;-78
2022/04/24 11:58:51;;;;;;;2.42;1.73;;;;;;;;;;12644438;28;20055;-78
2022/04/24 12:04:54;;;;;;;1.85;1.65;;;;;;;;;;12644154;28;20039;-78
2022/04/24 12:10:55;;;;;;;1.67;0.80;;;;;;;;;;12643915;28;20032;-79
2022/04/24 12:17:04;;;;;;;1.30;1.20;;;;;;;;;;12625662;28;20044;-79
2022/04/24 12:23:12;;;;;;;1.02;0.73;;;;;;;;;;12643949;28;20039;-79
2022/04/24 12:29:17;;;;;;;0.68;0.43;;;;;;;;;;12642377;28;20063;-79
2022/04/24 12:35:30;;;;;;;1.27;0.65;;;;;;;;;;12662354;28;20050;-79
2022/04/24 12:41:33;;;;;;;0.33;0.33;;;;;;;;;;12635007;28;20047;-79
2022/04/24 12:47:35;;;;;;;0.40;0.40;;;;;;;;;;12653036;28;20037;-78
2022/04/24 12:53:36;;;;;;;0.73;0.50;;;;;;;;;;12653544;28;20465;-78
2022/04/24 12:59:39;;;;;;;1.15;0.40;;;;;;;;;;12652793;28;20040;-78
2022/04/24 13:05:42;;;;;;;0.30;0.30;;;;;;;;;;12633874;28;20039;-78
2022/04/24 13:11:44;;;;;;;0.32;0.20;;;;;;;;;;12650699;28;20210;-77
2022/04/24 13:24:07;;;;;;;0.10;0.10;;;;;;;;;;12649999;28;20035;-78
2022/04/24 13:30:09;;;;;;;0.63;0.28;;;;;;;;;;12633336;28;20497;-77
2022/04/24 13:36:12;;;;;;;0.20;0.20;;;;;;;;;;12649319;28;20408;-78
2022/04/24 13:42:14;;;;;;;0.20;0.20;;;;;;;;;;12632370;28;20071;-78
2022/04/24 13:48:16;;;;;;;0.10;0.10;;;;;;;;;;12648924;28;20039;-79
2022/04/24 13:54:18;;;;;;;0.70;0.30;;;;;;;;;;12649926;28;20477;-79
2022/04/24 14:00:19;;;;;;;0.30;0.17;;;;;;;;;;12648771;28;20051;-79
2022/04/24 14:06:21;;;;;;;0.20;0.10;;;;;;;;;;12631863;28;20039;-79
2022/04/24 14:12:23;;;;;;;0.20;0.17;;;;;;;;;;12648891;28;20076;-76
2022/04/24 14:18:24;;;;;;;0.37;0.20;;;;;;;;;;12648245;28;20051;-78
2022/04/24 14:24:26;;;;;;;0.20;0.10;;;;;;;;;;12630660;28;20040;-77
2022/04/24 14:30:28;;;;;;;0.10;0.00;;;;;;;;;;12634811;28;20059;-79
2022/04/24 14:36:30;;;;;;;0.20;0.20;;;;;;;;;;12646623;28;20031;-77
2022/04/24 14:42:34;;;;;;;0.20;0.20;;;;;;;;;;12635363;28;20499;-76
2022/04/24 15:01:16;;;;;;;0.17;0.17;;;;;;;;;;12646778;28;20511;-79
2022/04/24 15:07:18;;;;;;;0.57;0.10;;;;;;;;;;12628115;28;20063;-79
2022/04/24 15:13:20;;;;;;;0.20;0.20;;;;;;;;;;12647516;28;20054;-76
2022/04/24 15:19:21;;;;;;;0.10;0.10;;;;;;;;;;12645254;28;20046;-77
2022/04/24 15:25:23;;;;;;;0.20;0.10;;;;;;;;;;12644208;28;20036;-76
2022/04/24 15:31:25;;;;;;;0.40;0.17;;;;;;;;;;12643977;28;20666;-76
2022/04/24 15:37:30;;;;;;;0.30;0.20;;;;;;;;;;12650879;28;20040;-78
2022/04/24 15:43:32;;;;;;;0.20;0.20;;;;;;;;;;12643890;28;20711;-76
2022/04/24 15:49:33;;;;;;;0.63;0.20;;;;;;;;;;12626549;28;20043;-76
2022/04/24 15:55:35;;;;;;;0.32;0.20;;;;;;;;;;12644378;28;20036;-76
2022/04/24 16:01:37;;;;;;;0.20;0.20;;;;;;;;;;12644935;28;20039;-75
2022/04/24 16:07:40;;;;;;;0.20;0.10;;;;;;;;;;12625268;28;20043;-76
2022/04/24 16:13:44;;;;;;;0.35;0.28;;;;;;;;;;12642347;28;20028;-76
2022/04/24 16:19:45;;;;;;;0.15;0.10;;;;;;;;;;12642206;28;20492;-75
2022/04/24 16:25:48;;;;;;;0.30;0.30;;;;;;;;;;12643676;28;20036;-76
2022/04/24 16:31:50;;;;;;;0.83;0.20;;;;;;;;;;12641773;28;20056;-75
2022/04/24 16:37:55;;;;;;;0.30;0.30;;;;;;;;;;12656748;28;20071;-76
2022/04/24 16:43:57;;;;;;;0.47;0.40;;;;;;;;;;12644796;28;20032;-75
2022/04/24 16:50:00;;;;;;;0.68;0.40;;;;;;;;;;12642690;28;20032;-76
2022/04/24 17:02:22;;;;;;;0.52;0.20;;;;;;;;;;12643138;28;19923;-76
2022/04/24 17:08:25;;;;;;;1.00;0.20;;;;;;;;;;12642282;28;20283;-76
2022/04/24 17:14:29;;;;;;;0.52;0.30;;;;;;;;;;12641110;28;20526;-76
2022/04/24 17:20:31;;;;;;;0.47;0.47;;;;;;;;;;12628135;28;20040;-77
2022/04/24 17:26:33;;;;;;;;;;;;;;;;;;12666260;28;20039;-76
2022/04/24 17:32:35;;;;;;;0.60;0.45;;;;;;;;;;12651057;28;19935;-76
2022/04/24 17:38:37;;;;;;;0.93;0.30;;;;;;;;;;12650458;28;20044;-75
2022/04/24 17:44:40;;;;;;;0.63;0.60;;;;;;;;;;12648973;28;20036;-74
2022/04/24 17:50:42;;;;;;;0.60;0.50;;;;;;;;;;12650562;28;20035;-76
2022/04/24 17:56:44;;;;;;;1.17;0.40;;;;;;;;;;12653948;28;20496;-76
2022/04/24 18:02:45;;;;;;;0.60;0.60;;;;;;;;;;12650300;28;20044;-77
2022/04/24 18:08:47;;;;;;;2.50;0.43;;;;;;;;;;12647680;28;20032;-76
2022/04/24 18:14:49;;;;;;;0.83;0.60;;;;;;;;;;12648705;28;20039;-76
2022/04/24 18:20:50;;;;;;;0.77;0.70;;;;;;;;;;12630500;28;20046;-77
2022/04/24 18:26:53;;;;;;;2.23;0.73;;;;;;;;;;12653494;28;20040;-77
2022/04/24 18:32:55;;;;;;;2.55;0.68;;;;;;;;;;12628961;28;20055;-76
2022/04/24 18:38:56;;;;;;;1.30;0.80;;;;;;;;;;12646457;28;20048;-76
2022/04/24 18:44:59;;;;;;;2.87;1.90;;;;;;;;;;12648596;28;20032;-75
2022/04/24 18:51:00;;;;;;;5.20;4.80;;;;;;;;;;12646924;28;20035;-75
2022/04/24 18:57:02;;;;;;;2.80;2.60;;;;;;;;;;12646707;28;20028;-76
2022/04/24 19:03:04;;;;;;;2.30;2.08;;;;;;;;;;12647690;28;20036;-77
2022/04/24 19:09:05;;;;;;;1.23;1.00;;;;;;;;;;12661644;28;20514;-77
2022/04/24 19:15:07;;;;;;;1.10;1.10;;;;;;;;;;12644913;28;20043;-77
2022/04/24 19:21:10;;;;;;;0.63;0.63;;;;;;;;;;12659255;28;20044;-76
2022/04/24 19:27:15;;;;;;;;;;;;;;;;;;12644624;28;20480;-76
2022/04/24 19:33:16;;;;;;;0.98;0.60;;;;;;;;;;12645174;28;19924;-76
2022/04/24 19:39:18;;;;;;;1.58;0.75;;;;;;;;;;12645035;28;20051;-75
2022/04/24 19:45:20;;;;;;;2.05;1.10;;;;;;;;;;12645254;28;20035;-78
2022/04/24 19:51:23;;;;;;;1.55;0.90;;;;;;;;;;12643484;28;20038;-75
2022/04/24 19:57:25;;;;;;;1.23;0.77;;;;;;;;;;12647552;28;20048;-76
2022/04/24 20:03:28;;;;;;;1.10;1.00;;;;;;;;;;12645811;28;20060;-74
2022/04/24 20:09:29;;;;;;;2.07;0.77;;;;;;;;;;12642881;28;20373;-75
2022/04/24 20:15:31;;;;;;;1.48;1.10;;;;;;;;;;12644952;28;20035;-78
2022/04/24 20:21:34;;;;;;;1.20;1.13;;;;;;;;;;12657283;28;20040;-77
2022/04/24 20:27:36;;;;;;;;;;;;;;;;;;12625411;28;20040;-77
2022/04/24 20:33:38;;;;;;;1.23;1.13;;;;;;;;;;12648314;28;19927;-76
2022/04/24 20:39:44;;;;;;;0.80;0.77;;;;;;;;;;12642957;28;20434;-75
2022/04/24 20:45:48;;;;;;;1.58;1.02;;;;;;;;;;12624993;28;20397;-76
2022/04/24 20:51:50;;;;;;;1.55;1.45;;;;;;;;;;12641937;28;20032;-75
2022/04/24 20:57:51;;;;;;;2.15;1.98;;;;;;;;;;12657562;28;20040;-75
2022/04/24 21:03:53;;;;;;;2.38;2.17;;;;;;;;;;12651885;28;20044;-75
2022/04/24 21:09:55;;;;;;;1.95;1.83;;;;;;;;;;12633717;28;20036;-75
2022/04/24 21:15:57;;;;;;;2.00;1.67;;;;;;;;;;12633616;28;20036;-75
2022/04/24 21:21:59;;;;;;;2.42;2.22;;;;;;;;;;12654941;28;20035;-75
2022/04/24 21:28:01;;;;;;;2.15;2.03;;;;;;;;;;12655434;28;20044;-76
2022/04/24 21:34:03;;;;;;;2.38;1.83;;;;;;;;;;12654993;28;20060;-76
2022/04/24 21:40:05;;;;;;;3.00;2.80;;;;;;;;;;12664863;28;20048;-76
2022/04/24 21:46:07;;;;;;;4.43;4.03;;;;;;;;;;12653613;28;20061;-76
2022/04/24 21:52:09;;;;;;;4.80;4.40;;;;;;;;;;12650406;28;20413;-75
2022/04/24 21:58:10;;;;;;;4.03;3.63;;;;;;;;;;12649728;28;20051;-76
2022/04/24 22:04:21;;;;;;;3.75;3.45;;;;;;;;;;12649676;28;20492;-75
2022/04/24 22:10:23;;;;;;;3.47;3.17;;;;;;;;;;12630915;28;20388;-75
2022/04/24 22:16:27;;;;;;;3.03;2.72;;;;;;;;;;12649039;28;20028;-75
2022/04/24 22:28:49;;;;;;;2.80;2.60;;;;;;;;;;12659825;28;20047;-76
2022/04/24 22:34:51;;;;;;;3.00;2.80;;;;;;;;;;12646679;28;20472;-76
2022/04/24 22:40:53;;;;;;;2.20;2.10;;;;;;;;;;12647863;28;20044;-75
2022/04/24 22:46:55;;;;;;;2.03;1.92;;;;;;;;;;12647453;28;20046;-75
2022/04/24 22:52:56;;;;;;;2.30;2.20;;;;;;;;;;12647595;28;20039;-75
2022/04/24 22:58:59;;;;;;;2.75;2.55;;;;;;;;;;12659718;28;20051;-76
2022/04/24 23:05:00;;;;;;;3.65;3.35;;;;;;;;;;12645241;28;20024;-76
2022/04/24 23:11:03;;;;;;;2.72;2.53;;;;;;;;;;12646575;28;20036;-76
2022/04/24 23:17:04;;;;;;;2.83;2.60;;;;;;;;;;12628083;28;20030;-76
2022/04/24 23:23:06;;;;;;;2.88;2.67;;;;;;;;;;12627805;28;20521;-76
2022/04/24 23:29:08;;;;;;;3.00;2.80;;;;;;;;;;12645853;28;20389;-76
2022/04/24 23:35:12;;;;;;;2.33;2.13;;;;;;;;;;12645972;28;20039;-77
2022/04/24 23:41:13;;;;;;;3.35;3.03;;;;;;;;;;12643755;28;20035;-77
2022/04/24 23:47:15;;;;;;;3.92;3.53;;;;;;;;;;12645159;28;20040;-77
2022/04/24 23:53:17;;;;;;;3.20;3.00;;;;;;;;;;12626517;28;20039;-77
2022/04/24 23:59:18;;;;;;;2.67;2.47;;;;;;;;;;12626796;28;20048;-76
